createdAt,value
2019-03-15T00:00:35.232Z,2.60
2019-03-15T00:03:03.564Z,2.70
2019-03-15T00:05:34.043Z,2.10
2019-03-15T00:08:02.658Z,2.37
2019-03-15T00:10:32.820Z,3.00
2019-03-15T00:13:01.017Z,1.83
2019-03-15T00:15:29.201Z,2.27
2019-03-15T00:17:57.429Z,2.03
2019-03-15T00:20:25.866Z,2.00
2019-03-15T00:22:54.376Z,2.53
2019-03-15T00:25:22.653Z,2.30
2019-03-15T00:27:50.861Z,2.20
2019-03-15T00:30:19.150Z,1.93
2019-03-15T00:32:47.406Z,2.10
2019-03-15T00:35:15.695Z,1.83
2019-03-15T00:37:43.945Z,1.70
2019-03-15T00:40:13.657Z,2.67
2019-03-15T00:42:43.023Z,1.77
2019-03-15T00:45:11.375Z,2.20
2019-03-15T00:47:39.634Z,1.20
2019-03-15T00:50:09.981Z,2.30
2019-03-15T00:52:38.237Z,1.57
2019-03-15T00:55:06.794Z,1.87
2019-03-15T00:57:35.061Z,1.83
2019-03-15T01:00:05.375Z,2.03
2019-03-15T01:02:33.637Z,2.70
2019-03-15T01:05:02.008Z,1.90
2019-03-15T01:07:30.285Z,1.50
2019-03-15T01:09:58.467Z,2.00
2019-03-15T01:12:26.757Z,1.77
2019-03-15T01:14:55.049Z,2.40
2019-03-15T01:17:24.490Z,2.00
2019-03-15T01:19:53.006Z,1.80
2019-03-15T01:22:21.543Z,2.07
2019-03-15T01:24:51.365Z,1.77
2019-03-15T01:27:20.378Z,1.90
2019-03-15T01:29:48.878Z,1.80
2019-03-15T01:32:17.633Z,1.83
2019-03-15T01:34:46.682Z,2.27
2019-03-15T01:37:15.087Z,1.70
2019-03-15T01:39:44.123Z,1.67
2019-03-15T01:42:12.383Z,1.93
2019-03-15T01:44:40.657Z,1.70
2019-03-15T01:47:08.845Z,2.30
2019-03-15T01:49:37.050Z,1.90
2019-03-15T01:52:07.451Z,2.07
2019-03-15T01:54:35.806Z,2.00
2019-03-15T01:57:04.076Z,1.60
2019-03-15T01:59:32.329Z,2.27
2019-03-15T02:02:00.794Z,2.13
2019-03-15T02:04:29.222Z,2.30
2019-03-15T02:06:58.077Z,2.07
2019-03-15T02:09:26.333Z,1.80
2019-03-15T02:11:55.543Z,2.40
2019-03-15T02:14:23.790Z,1.70
2019-03-15T02:16:52.005Z,2.30
2019-03-15T02:19:20.270Z,2.43
2019-03-15T02:21:48.606Z,2.10
2019-03-15T02:24:17.594Z,1.67
2019-03-15T02:26:45.890Z,2.20
2019-03-15T02:29:14.147Z,1.90
2019-03-15T02:31:43.194Z,3.03
2019-03-15T02:34:11.412Z,1.93
2019-03-15T02:36:40.446Z,1.90
2019-03-15T02:39:08.985Z,3.80
2019-03-15T02:41:37.815Z,1.80
2019-03-15T02:44:06.086Z,1.53
2019-03-15T02:46:35.067Z,2.20
2019-03-15T02:49:03.426Z,1.60
2019-03-15T02:51:31.690Z,1.63
2019-03-15T02:54:00.919Z,1.87
2019-03-15T02:56:29.269Z,2.20
2019-03-15T02:58:57.474Z,2.07
2019-03-15T03:01:25.993Z,2.10
2019-03-15T03:03:55.035Z,1.90
2019-03-15T03:06:23.324Z,2.17
2019-03-15T03:08:51.598Z,1.87
2019-03-15T03:11:19.874Z,2.27
2019-03-15T03:13:48.595Z,1.83
2019-03-15T03:16:19.332Z,2.20
2019-03-15T03:18:47.718Z,2.00
2019-03-15T03:21:16.005Z,2.10
2019-03-15T03:23:44.530Z,3.40
2019-03-15T03:26:13.725Z,1.73
2019-03-15T03:28:43.034Z,2.20
2019-03-15T03:31:11.342Z,2.20
2019-03-15T03:33:40.961Z,1.90
2019-03-15T03:36:11.178Z,2.13
2019-03-15T03:38:39.497Z,2.10
2019-03-15T03:41:08.025Z,2.53
2019-03-15T03:43:36.301Z,2.17
2019-03-15T03:46:04.578Z,2.10
2019-03-15T03:48:32.974Z,1.90
2019-03-15T03:51:02.042Z,2.10
2019-03-15T03:53:30.342Z,2.27
2019-03-15T03:55:58.687Z,1.83
2019-03-15T03:58:26.940Z,1.87
2019-03-15T04:00:55.291Z,2.80
2019-03-15T04:03:24.406Z,3.53
2019-03-15T04:05:52.622Z,2.43
2019-03-15T04:08:22.777Z,2.30
2019-03-15T04:10:51.234Z,2.60
2019-03-15T04:13:19.683Z,2.43
2019-03-15T04:15:48.365Z,2.53
2019-03-15T04:18:17.206Z,2.00
2019-03-15T04:20:46.693Z,2.20
2019-03-15T04:23:14.954Z,2.33
2019-03-15T04:25:44.122Z,2.13
2019-03-15T04:28:12.622Z,2.37
2019-03-15T04:30:41.488Z,2.20
2019-03-15T04:33:09.751Z,3.07
2019-03-15T04:35:38.773Z,2.00
2019-03-15T04:38:06.995Z,2.73
2019-03-15T04:40:35.177Z,1.90
2019-03-15T04:43:04.197Z,2.30
2019-03-15T04:45:32.463Z,2.23
2019-03-15T04:48:00.736Z,2.93
2019-03-15T04:50:30.714Z,2.70
2019-03-15T04:52:59.002Z,2.20
2019-03-15T04:55:27.260Z,2.50
2019-03-15T04:57:57.177Z,2.20
2019-03-15T05:00:25.678Z,2.30
2019-03-15T05:02:55.145Z,2.50
2019-03-15T05:05:23.330Z,2.80
2019-03-15T05:07:51.696Z,1.97
2019-03-15T05:10:20.222Z,3.10
2019-03-15T05:12:50.282Z,2.70
2019-03-15T05:15:19.130Z,2.30
2019-03-15T05:17:47.394Z,2.37
2019-03-15T05:20:15.933Z,2.13
2019-03-15T05:22:45.769Z,2.50
2019-03-15T05:25:14.158Z,2.50
2019-03-15T05:27:42.423Z,3.17
2019-03-15T05:30:10.966Z,2.40
2019-03-15T05:32:39.157Z,2.77
2019-03-15T05:35:07.490Z,2.33
2019-03-15T05:37:35.884Z,2.57
2019-03-15T05:40:07.264Z,1.97
2019-03-15T05:42:35.797Z,2.33
2019-03-15T05:45:05.529Z,2.27
2019-03-15T05:47:34.969Z,4.00
2019-03-15T05:50:03.925Z,2.30
2019-03-15T05:52:32.458Z,2.53
2019-03-15T05:55:00.718Z,3.10
2019-03-15T05:57:31.457Z,3.00
2019-03-15T06:00:01.340Z,3.03
2019-03-15T06:02:30.533Z,2.57
2019-03-15T06:04:58.717Z,2.80
2019-03-15T06:07:26.976Z,2.87
2019-03-15T06:09:55.186Z,2.43
2019-03-15T06:12:23.706Z,2.60
2019-03-15T06:14:52.766Z,3.00
2019-03-15T06:17:22.258Z,2.27
2019-03-15T06:19:50.548Z,2.40
2019-03-15T06:22:19.370Z,2.30
2019-03-15T06:24:49.546Z,2.40
2019-03-15T06:27:18.071Z,3.47
2019-03-15T06:29:46.468Z,2.63
2019-03-15T06:32:14.734Z,3.13
2019-03-15T06:34:42.921Z,2.70
2019-03-15T06:37:11.762Z,2.23
2019-03-15T06:39:40.030Z,2.77
2019-03-15T06:42:08.438Z,2.43
2019-03-15T06:44:37.846Z,2.30
2019-03-15T06:47:06.168Z,4.30
2019-03-15T06:49:34.430Z,1.90
2019-03-15T06:52:02.638Z,2.07
2019-03-15T06:54:32.230Z,2.00
2019-03-15T06:57:00.767Z,1.93
2019-03-15T06:59:29.280Z,1.90
2019-03-15T07:01:57.697Z,2.17
2019-03-15T07:04:28.829Z,1.73
2019-03-15T07:06:58.314Z,2.07
2019-03-15T07:09:26.866Z,1.30
2019-03-15T07:12:08.496Z,1.23
2019-03-15T07:14:25.314Z,1.47
2019-03-15T07:16:53.612Z,1.40
2019-03-15T07:19:27.592Z,1.40
2019-03-15T07:21:51.781Z,1.40
2019-03-15T07:24:25.067Z,1.47
2019-03-15T07:29:24.682Z,1.60
2019-03-15T07:31:54.017Z,1.20
2019-03-15T07:34:22.558Z,1.40
2019-03-15T07:36:55.216Z,1.60
2019-03-15T07:39:22.766Z,1.93
2019-03-15T07:41:50.978Z,1.67
2019-03-15T07:44:19.251Z,1.50
2019-03-15T07:46:47.533Z,1.50
2019-03-15T07:49:15.793Z,1.20
2019-03-15T07:51:44.001Z,2.33
2019-03-15T07:54:12.181Z,1.20
2019-03-15T07:56:40.407Z,1.40
2019-03-15T07:59:08.652Z,1.40
2019-03-15T08:01:36.918Z,1.20
2019-03-15T08:04:16.320Z,2.00
2019-03-15T08:06:36.407Z,1.10
2019-03-15T08:09:05.859Z,1.67
2019-03-15T08:11:34.051Z,1.40
2019-03-15T08:14:02.417Z,1.37
2019-03-15T08:16:30.669Z,1.20
2019-03-15T08:19:00.490Z,1.20
2019-03-15T08:21:28.741Z,1.40
2019-03-15T08:23:56.953Z,1.47
2019-03-15T08:26:25.213Z,1.70
2019-03-15T08:28:53.513Z,1.37
2019-03-15T08:31:23.278Z,3.07
2019-03-15T08:33:51.758Z,2.00
2019-03-15T08:36:22.275Z,2.00
2019-03-15T08:38:50.534Z,1.57
2019-03-15T08:41:18.813Z,1.77
2019-03-15T08:43:47.070Z,2.07
2019-03-15T08:46:15.355Z,2.00
2019-03-15T08:48:43.614Z,1.60
2019-03-15T08:51:11.831Z,1.37
2019-03-15T08:53:40.089Z,1.60
2019-03-15T08:56:08.370Z,1.60
2019-03-15T08:58:38.363Z,1.53
2019-03-15T09:01:10.981Z,1.90
2019-03-15T09:03:38.906Z,1.77
2019-03-15T09:06:07.305Z,1.80
2019-03-15T09:08:37.430Z,1.60
2019-03-15T09:11:05.415Z,1.90
2019-03-15T09:13:33.708Z,1.40
2019-03-15T09:16:01.969Z,1.50
2019-03-15T09:18:30.255Z,2.17
2019-03-15T09:21:00.473Z,1.40
2019-03-15T09:23:28.446Z,2.00
2019-03-15T09:25:56.708Z,1.73
2019-03-15T09:28:24.993Z,1.20
2019-03-15T09:30:53.194Z,1.90
2019-03-15T09:33:21.502Z,1.60
2019-03-15T09:35:49.765Z,1.20
2019-03-15T09:38:18.026Z,1.60
2019-03-15T09:40:46.314Z,2.00
2019-03-15T09:43:14.646Z,1.40
2019-03-15T09:45:42.853Z,1.40
2019-03-15T09:48:11.121Z,1.77
2019-03-15T09:50:50.537Z,2.00
2019-03-15T09:53:09.309Z,1.50
2019-03-15T09:55:37.517Z,1.30
2019-03-15T09:58:06.186Z,1.20
2019-03-15T10:00:34.447Z,1.40
2019-03-15T10:03:02.735Z,1.67
2019-03-15T10:05:31.003Z,2.80
2019-03-15T10:07:59.282Z,1.70
2019-03-15T10:10:27.541Z,1.80
2019-03-15T10:13:05.643Z,1.47
2019-03-15T10:15:26.594Z,1.40
2019-03-15T10:17:55.011Z,2.00
2019-03-15T10:20:23.300Z,1.50
2019-03-15T10:23:04.705Z,1.73
2019-03-15T10:25:21.503Z,1.60
2019-03-15T10:27:49.763Z,1.77
2019-03-15T10:30:21.257Z,1.20
2019-03-15T10:32:49.519Z,2.33
2019-03-15T10:35:17.870Z,1.00
2019-03-15T10:37:46.130Z,1.57
2019-03-15T10:40:18.762Z,1.30
2019-03-15T10:42:47.047Z,1.60
2019-03-15T10:45:15.387Z,1.67
2019-03-15T10:47:43.746Z,1.00
2019-03-15T10:50:12.967Z,1.23
2019-03-15T10:52:42.789Z,1.67
2019-03-15T10:55:11.341Z,1.60
2019-03-15T10:57:39.626Z,1.20
2019-03-15T11:00:12.376Z,1.77
2019-03-15T11:02:40.658Z,1.20
2019-03-15T11:05:10.143Z,1.50
2019-03-15T11:07:49.969Z,1.73
2019-03-15T11:10:19.170Z,1.70
2019-03-15T11:12:47.458Z,2.47
2019-03-15T11:15:15.983Z,2.30
2019-03-15T11:17:44.246Z,1.63
2019-03-15T11:20:12.814Z,2.13
2019-03-15T11:22:41.070Z,1.83
2019-03-15T11:25:09.935Z,2.47
2019-03-15T11:27:44.300Z,1.73
2019-03-15T11:30:24.430Z,1.07
2019-03-15T11:32:51.006Z,1.40
2019-03-15T11:35:21.514Z,1.53
2019-03-15T11:37:50.109Z,1.30
2019-03-15T11:40:19.397Z,1.40
2019-03-15T11:42:48.417Z,1.53
2019-03-15T11:45:16.620Z,1.60
2019-03-15T11:48:02.075Z,1.93
2019-03-15T11:50:18.713Z,2.23
2019-03-15T11:52:47.186Z,4.70
2019-03-15T11:55:15.774Z,3.10
2019-03-15T11:57:44.159Z,2.20
2019-03-15T12:00:16.879Z,3.20
2019-03-15T12:02:47.310Z,1.67
2019-03-15T12:05:15.642Z,1.23
2019-03-15T12:07:44.166Z,1.43
2019-03-15T12:10:13.206Z,1.50
2019-03-15T12:12:41.481Z,1.40
2019-03-15T12:15:10.536Z,1.50
2019-03-15T12:17:38.793Z,1.00
2019-03-15T12:20:08.277Z,0.80
2019-03-15T12:22:36.494Z,0.90
2019-03-15T12:25:06.311Z,0.80
2019-03-15T12:27:35.123Z,0.80
2019-03-15T12:30:04.973Z,1.00
2019-03-15T12:32:33.431Z,0.90
2019-03-15T12:35:03.888Z,1.07
2019-03-15T12:37:32.158Z,1.00
2019-03-15T12:40:00.588Z,1.00
2019-03-15T12:42:28.834Z,0.90
2019-03-15T12:44:57.098Z,1.23
2019-03-15T12:47:25.381Z,1.50
2019-03-15T12:49:54.633Z,0.80
2019-03-15T12:52:23.323Z,1.03
2019-03-15T12:54:51.697Z,0.90
2019-03-15T12:57:19.917Z,0.70
2019-03-15T12:59:48.178Z,0.90
2019-03-15T13:02:16.457Z,0.80
2019-03-15T13:04:44.651Z,0.80
2019-03-15T13:07:12.937Z,0.90
2019-03-15T13:09:41.202Z,0.87
2019-03-15T13:12:09.414Z,0.90
2019-03-15T13:14:37.686Z,2.67
2019-03-15T13:17:06.062Z,3.30
2019-03-15T13:19:34.502Z,0.73
2019-03-15T13:22:03.049Z,2.67
2019-03-15T13:24:31.263Z,1.23
2019-03-15T13:27:07.421Z,0.90
2019-03-15T13:29:31.163Z,1.10
2019-03-15T13:31:59.414Z,0.90
2019-03-15T13:34:27.699Z,1.07
2019-03-15T13:36:55.954Z,0.90
2019-03-15T13:39:24.163Z,0.97
2019-03-15T13:41:53.578Z,1.13
2019-03-15T13:44:21.790Z,1.90
2019-03-15T13:46:50.066Z,1.47
2019-03-15T13:49:18.317Z,0.90
2019-03-15T13:51:46.526Z,1.20
2019-03-15T13:54:14.790Z,1.80
2019-03-15T13:56:43.074Z,0.90
2019-03-15T13:59:11.338Z,1.10
2019-03-15T14:01:39.550Z,1.10
2019-03-15T14:04:07.818Z,1.30
2019-03-15T14:06:36.035Z,1.90
2019-03-15T14:09:06.161Z,1.00
2019-03-15T14:11:34.466Z,0.80
2019-03-15T14:14:02.813Z,0.70
2019-03-15T14:16:30.997Z,1.10
2019-03-15T14:18:59.285Z,0.90
2019-03-15T14:21:27.542Z,0.90
2019-03-15T14:23:55.829Z,0.97
2019-03-15T14:26:24.086Z,0.97
2019-03-15T14:28:52.384Z,0.83
2019-03-15T14:31:21.740Z,0.80
2019-03-15T14:33:50.117Z,0.60
2019-03-15T14:36:18.299Z,0.70
2019-03-15T14:38:48.253Z,0.73
2019-03-15T14:41:16.607Z,0.77
2019-03-15T14:43:45.102Z,0.70
2019-03-15T14:46:13.337Z,0.67
2019-03-15T14:48:41.594Z,0.60
2019-03-15T14:51:09.894Z,0.63
2019-03-15T14:53:38.150Z,0.70
2019-03-15T14:56:06.442Z,0.80
2019-03-15T14:58:34.703Z,0.80
2019-03-15T15:01:02.998Z,0.70
2019-03-15T15:03:32.037Z,0.70
2019-03-15T15:06:00.318Z,0.80
2019-03-15T15:08:28.826Z,0.80
2019-03-15T15:10:57.128Z,0.70
2019-03-15T15:13:25.389Z,0.70
2019-03-15T15:15:55.541Z,0.60
2019-03-15T15:18:26.899Z,0.60
2019-03-15T15:20:56.238Z,3.27
2019-03-15T15:23:24.778Z,0.70
2019-03-15T15:25:53.055Z,0.70
2019-03-15T15:28:22.105Z,0.70
2019-03-15T15:30:50.327Z,0.80
2019-03-15T15:33:20.195Z,0.80
2019-03-15T15:35:48.450Z,0.60
2019-03-15T15:38:16.732Z,0.80
2019-03-15T15:40:44.994Z,0.90
2019-03-15T15:43:13.210Z,0.83
2019-03-15T15:45:41.713Z,0.70
2019-03-15T15:48:10.076Z,0.80
2019-03-15T15:50:38.335Z,0.63
2019-03-15T15:53:06.597Z,0.60
2019-03-15T15:55:37.821Z,0.67
2019-03-15T15:58:17.893Z,0.80
2019-03-15T16:00:38.859Z,0.60
2019-03-15T16:03:07.223Z,0.80
2019-03-15T16:05:35.505Z,0.70
2019-03-15T16:08:03.703Z,0.60
2019-03-15T16:10:31.983Z,0.60
2019-03-15T16:13:02.594Z,0.60
2019-03-15T16:15:30.185Z,0.73
2019-03-15T16:17:58.384Z,0.60
2019-03-15T16:20:26.633Z,0.80
2019-03-15T16:22:54.926Z,1.00
2019-03-15T16:25:24.155Z,0.90
2019-03-15T16:27:52.622Z,0.70
2019-03-15T16:30:21.001Z,0.70
2019-03-15T16:32:49.529Z,0.60
2019-03-15T16:35:18.143Z,0.73
2019-03-15T16:37:46.402Z,0.80
2019-03-15T16:40:16.891Z,0.70
2019-03-15T16:42:46.545Z,2.93
2019-03-15T16:45:16.526Z,1.37
2019-03-15T16:47:44.737Z,1.07
2019-03-15T16:50:12.993Z,1.33
2019-03-15T16:52:41.791Z,0.87
2019-03-15T16:55:10.818Z,1.10
2019-03-15T16:57:40.408Z,6.10
2019-03-15T17:00:09.962Z,2.60
2019-03-15T17:02:38.794Z,0.90
2019-03-15T17:05:08.189Z,0.70
2019-03-15T17:07:36.422Z,0.70
2019-03-15T17:10:06.569Z,0.70
2019-03-15T17:12:34.834Z,0.90
2019-03-15T17:15:03.286Z,0.73
2019-03-15T17:17:31.554Z,0.90
2019-03-15T17:20:00.156Z,0.90
2019-03-15T17:22:28.421Z,0.73
2019-03-15T17:24:56.623Z,0.90
2019-03-15T17:27:25.878Z,0.93
2019-03-15T17:29:54.139Z,0.80
2019-03-15T17:32:22.498Z,0.73
2019-03-15T17:34:50.759Z,0.80
2019-03-15T17:37:19.046Z,1.10
2019-03-15T17:39:47.556Z,0.80
2019-03-15T17:42:15.797Z,1.00
2019-03-15T17:44:43.982Z,1.23
2019-03-15T17:47:12.361Z,1.50
2019-03-15T17:49:40.565Z,1.30
2019-03-15T17:52:08.762Z,0.80
2019-03-15T17:54:37.037Z,0.70
2019-03-15T17:57:05.342Z,1.10
2019-03-15T17:59:33.590Z,0.77
2019-03-15T18:02:01.851Z,0.90
2019-03-15T18:04:30.137Z,0.77
2019-03-15T18:07:00.122Z,1.47
2019-03-15T18:09:28.425Z,0.90
2019-03-15T18:11:58.203Z,0.80
2019-03-15T18:14:26.492Z,0.77
2019-03-15T18:16:54.749Z,1.10
2019-03-15T18:19:23.346Z,0.90
2019-03-15T18:21:52.682Z,0.70
2019-03-15T18:24:21.166Z,0.87
2019-03-15T18:26:49.412Z,0.80
2019-03-15T18:29:26.437Z,0.70
2019-03-15T18:31:48.135Z,0.70
2019-03-15T18:34:16.394Z,1.30
2019-03-15T18:36:46.216Z,0.90
2019-03-15T18:39:14.473Z,0.73
2019-03-15T18:41:42.694Z,0.80
2019-03-15T18:44:10.949Z,0.73
2019-03-15T18:46:49.401Z,0.73
2019-03-15T18:49:18.804Z,1.10
2019-03-15T18:51:47.178Z,0.70
2019-03-15T18:54:17.675Z,0.90
2019-03-15T18:56:45.305Z,0.90
2019-03-15T18:59:13.683Z,1.20
2019-03-15T19:01:42.345Z,1.07
2019-03-15T19:04:10.869Z,0.93
2019-03-15T19:06:39.127Z,1.00
2019-03-15T19:09:07.334Z,0.90
2019-03-15T19:11:35.854Z,1.07
2019-03-15T19:14:04.985Z,0.90
2019-03-15T19:16:33.433Z,0.70
2019-03-15T19:19:01.736Z,0.90
2019-03-15T19:21:31.617Z,1.17
2019-03-15T19:23:59.970Z,1.10
2019-03-15T19:26:29.113Z,0.80
2019-03-15T19:28:57.419Z,1.00
2019-03-15T19:31:25.933Z,1.00
2019-03-15T19:33:54.131Z,0.70
2019-03-15T19:36:23.193Z,1.00
2019-03-15T19:38:51.459Z,0.90
2019-03-15T19:41:19.742Z,0.70
2019-03-15T19:43:50.658Z,0.80
2019-03-15T19:46:21.014Z,0.90
2019-03-15T19:48:49.269Z,0.83
2019-03-15T19:51:17.625Z,0.80
2019-03-15T19:53:46.013Z,1.00
2019-03-15T19:56:14.205Z,0.80
2019-03-15T19:58:43.298Z,0.80
2019-03-15T20:01:12.306Z,1.00
2019-03-15T20:03:44.359Z,1.07
2019-03-15T20:06:11.160Z,0.90
2019-03-15T20:08:39.538Z,1.27
2019-03-15T20:11:07.788Z,0.90
2019-03-15T20:13:37.933Z,1.00
2019-03-15T20:16:06.190Z,0.93
2019-03-15T20:18:34.401Z,0.70
2019-03-15T20:21:02.818Z,0.70
2019-03-15T20:23:31.176Z,0.90
2019-03-15T20:25:59.510Z,0.70
2019-03-15T20:28:29.437Z,0.80
2019-03-15T20:30:58.014Z,0.87
2019-03-15T20:33:26.537Z,0.80
2019-03-15T20:35:55.006Z,0.80
2019-03-15T20:38:23.790Z,1.00
2019-03-15T20:40:52.263Z,0.93
2019-03-15T20:43:20.570Z,1.10
2019-03-15T20:45:48.961Z,0.97
2019-03-15T20:48:17.750Z,0.87
2019-03-15T20:50:47.258Z,0.80
2019-03-15T20:53:16.378Z,0.83
2019-03-15T20:55:44.692Z,1.20
2019-03-15T20:58:13.021Z,0.80
2019-03-15T21:00:42.287Z,0.60
2019-03-15T21:03:11.798Z,0.80
2019-03-15T21:05:40.039Z,0.80
2019-03-15T21:08:08.365Z,0.80
2019-03-15T21:10:37.865Z,0.90
2019-03-15T21:13:06.486Z,1.00
2019-03-15T21:15:35.050Z,1.00
2019-03-15T21:18:03.449Z,0.90
2019-03-15T21:20:31.717Z,1.10
2019-03-15T21:23:03.041Z,0.90
2019-03-15T21:25:34.188Z,0.83
2019-03-15T21:28:03.632Z,0.90
2019-03-15T21:30:32.652Z,0.70
2019-03-15T21:33:01.260Z,1.00
2019-03-15T21:35:29.850Z,0.90
2019-03-15T21:37:58.109Z,1.00
2019-03-15T21:40:26.390Z,0.90
2019-03-15T21:42:54.914Z,1.10
2019-03-15T21:45:23.765Z,1.23
2019-03-15T21:47:53.754Z,1.00
2019-03-15T21:50:22.490Z,0.83
2019-03-15T21:52:51.620Z,0.80
2019-03-15T21:55:20.331Z,0.80
2019-03-15T21:57:49.371Z,1.00
2019-03-15T22:00:18.103Z,0.90
2019-03-15T22:02:48.452Z,0.90
2019-03-15T22:05:16.706Z,0.90
2019-03-15T22:07:46.457Z,0.90
2019-03-15T22:10:15.364Z,0.80
2019-03-15T22:12:44.445Z,0.73
2019-03-15T22:15:13.922Z,0.80
2019-03-15T22:17:42.298Z,0.90
2019-03-15T22:20:14.452Z,0.83
2019-03-15T22:22:42.958Z,0.80
2019-03-15T22:25:11.289Z,0.80
2019-03-15T22:27:39.554Z,0.80
2019-03-15T22:30:11.405Z,0.90
2019-03-15T22:32:39.628Z,0.70
2019-03-15T22:35:07.881Z,0.80
2019-03-15T22:37:36.070Z,0.90
2019-03-15T22:40:05.410Z,0.83
2019-03-15T22:42:35.128Z,0.70
2019-03-15T22:45:04.272Z,0.70
2019-03-15T22:47:32.438Z,0.80
2019-03-15T22:50:01.749Z,1.10
2019-03-15T22:52:30.005Z,0.70
2019-03-15T22:54:58.209Z,0.70
2019-03-15T22:57:26.405Z,0.97
2019-03-15T22:59:55.235Z,0.90
2019-03-15T23:02:23.530Z,0.80
2019-03-15T23:04:52.585Z,0.70
2019-03-15T23:07:21.438Z,0.80
2019-03-15T23:09:51.304Z,0.80
2019-03-15T23:12:20.105Z,0.70
2019-03-15T23:14:50.288Z,2.00
2019-03-15T23:17:18.755Z,0.70
2019-03-15T23:19:47.291Z,0.70
2019-03-15T23:22:15.842Z,0.90
2019-03-15T23:24:44.364Z,0.80
2019-03-15T23:27:12.918Z,0.80
2019-03-15T23:29:41.289Z,0.90
2019-03-15T23:32:09.594Z,0.60
2019-03-15T23:34:37.866Z,1.00
2019-03-15T23:37:06.134Z,0.70
2019-03-15T23:39:34.416Z,1.30
2019-03-15T23:42:02.681Z,0.70
2019-03-15T23:44:30.970Z,0.90
2019-03-15T23:46:59.237Z,0.80
2019-03-15T23:49:27.513Z,0.80
2019-03-15T23:51:57.374Z,1.27
2019-03-15T23:54:25.652Z,0.90
2019-03-15T23:56:55.688Z,0.63
2019-03-15T23:59:24.923Z,0.70
